Villa Park, California
Current Conditions -  °F | °C
As of 10:53 PM on Wednesday 26 Nov 2014 (Local Time) from KSNA Reporting Station
Clear Clear  
Wind Chill: 61°   Ceiling: Unl
Heat Index: 61°   Visibility: 10mi
Dew Point: 43°   Wind: 0mph
Humidity: 52%   Direction: NA
Pressure: 30.12"   Gusts: NA
Location:  33.81°N, 117.82°W
Report Text: KSNA 270653Z 00000KT 10SM CLR 16/06 A3012 RMK AO2 SLP197 T01610061
Loading
Personal Weather Stations






























Interactive Weather Map New forecast layout! Learn more

10-Day Weather Forecast

Advertisements
Track Severe Weather on mobile